Time;durP1;ratioP1;P1;durP2;ratioP2;P2;SDS_P1;SDS_P2;PMS_P1;PMS_P2;Temp;Humidity;BMP_temperature;BMP_pressure;BME280_temperature;BME280_humidity;BME280_pressure;Samples;Min_cycle;Max_cycle;Signal;HPM_P1;HPM_P2
2023/11/14 00:00:27;;;;;;;0.22;0.20;;;;;;;10.21;100.00;92423.75;2125625;27;20097;-78
2023/11/14 00:01:27;;;;;;;0.85;0.22;;;;;;;10.25;100.00;92421.00;2126706;27;20578;-79
2023/11/14 00:02:28;;;;;;;0.93;0.30;;;;;;;10.25;100.00;92435.09;2110780;28;20634;-79
2023/11/14 00:03:30;;;;;;;0.20;0.20;;;;;;;10.16;100.00;92428.91;2118341;27;20491;-79
2023/11/14 00:04:30;;;;;;;1.65;0.20;;;;;;;10.11;100.00;92437.44;2126425;27;20026;-78
2023/11/14 00:05:34;;;;;;;0.10;0.10;;;;;;;10.20;100.00;92432.94;2129453;27;20046;-78
2023/11/14 00:06:35;;;;;;;0.88;0.30;;;;;;;10.30;100.00;92426.53;2125831;27;20027;-77
2023/11/14 00:07:36;;;;;;;0.32;0.28;;;;;;;10.28;100.00;92428.91;2129101;27;20039;-77
2023/11/14 00:08:37;;;;;;;0.20;0.20;;;;;;;10.25;100.00;92440.44;2127739;27;20076;-80
2023/11/14 00:09:44;;;;;;;0.30;0.22;;;;;;;10.22;100.00;92443.94;2126410;27;20489;-80
2023/11/14 00:10:46;;;;;;;0.50;0.20;;;;;;;10.28;100.00;92444.94;2128178;27;20372;-80
2023/11/14 00:11:47;;;;;;;0.40;0.20;;;;;;;10.37;100.00;92449.63;2129898;27;20494;-77
2023/11/14 00:12:48;;;;;;;0.20;0.20;;;;;;;10.45;100.00;92434.88;2123313;27;20098;-79
2023/11/14 00:13:49;;;;;;;0.52;0.20;;;;;;;10.30;100.00;92455.19;2119328;27;20024;-78
2023/11/14 00:14:50;;;;;;;0.20;0.10;;;;;;;10.37;100.00;92432.84;2127398;27;20051;-78
2023/11/14 00:15:51;;;;;;;0.15;0.15;;;;;;;10.37;100.00;92452.28;2125294;27;20119;-79
2023/11/14 00:16:52;;;;;;;0.10;0.10;;;;;;;10.45;100.00;92445.56;2130948;27;20023;-81
2023/11/14 00:17:53;;;;;;;0.80;0.40;;;;;;;10.32;100.00;92474.94;2126853;27;20047;-79
2023/11/14 00:18:55;;;;;;;0.43;0.20;;;;;;;10.44;100.00;92462.00;2129401;27;20019;-80
2023/11/14 00:19:56;;;;;;;1.40;0.30;;;;;;;10.38;100.00;92451.09;2129647;27;20102;-79
2023/11/14 00:20:57;;;;;;;1.17;0.25;;;;;;;10.39;100.00;92455.28;2129503;27;20030;-77
2023/11/14 00:21:58;;;;;;;0.52;0.25;;;;;;;10.39;100.00;92441.91;2128560;27;20079;-79
2023/11/14 00:22:59;;;;;;;0.82;0.30;;;;;;;10.37;100.00;92457.63;2119122;27;20426;-80
2023/11/14 00:24:01;;;;;;;0.30;0.22;;;;;;;10.36;100.00;92464.16;2125503;27;20363;-81
2023/11/14 00:25:02;;;;;;;0.20;0.20;;;;;;;10.26;100.00;92473.25;2125825;27;20023;-80
2023/11/14 00:26:03;;;;;;;0.10;0.10;;;;;;;10.22;100.00;92459.22;2128264;27;20022;-78
2023/11/14 00:27:05;;;;;;;0.63;0.30;;;;;;;10.25;100.00;92461.81;2128027;27;20019;-77
2023/11/14 00:28:07;;;;;;;1.35;0.20;;;;;;;10.19;100.00;92468.84;2126622;27;20072;-78
2023/11/14 00:29:08;;;;;;;0.20;0.20;;;;;;;10.21;100.00;92476.41;2114848;27;20099;-79
2023/11/14 00:30:10;;;;;;;0.25;0.25;;;;;;;10.15;100.00;92470.13;2124150;27;20377;-77
2023/11/14 00:31:11;;;;;;;1.65;0.22;;;;;;;10.07;100.00;92485.63;2126943;27;20030;-78
2023/11/14 00:32:12;;;;;;;0.20;0.20;;;;;;;10.19;100.00;92463.50;2119591;27;20064;-81
2023/11/14 00:33:13;;;;;;;0.65;0.40;;;;;;;10.06;100.00;92476.84;2120306;27;20486;-82
2023/11/14 00:34:14;;;;;;;0.63;0.40;;;;;;;10.19;100.00;92444.81;2127247;27;20101;-78
2023/11/14 00:35:15;;;;;;;1.20;0.30;;;;;;;10.04;100.00;92463.19;2112844;27;20063;-77
2023/11/14 00:36:16;;;;;;;0.28;0.28;;;;;;;10.05;100.00;92463.91;2104710;28;20507;-81
2023/11/14 00:37:17;;;;;;;1.33;0.30;;;;;;;9.90;100.00;92482.28;2103926;28;20082;-79
2023/11/14 00:38:18;;;;;;;0.25;0.20;;;;;;;9.91;100.00;92456.34;2107789;28;20430;-79
2023/11/14 00:39:19;;;;;;;0.40;0.20;;;;;;;9.98;100.00;92472.91;2115702;27;20027;-78
2023/11/14 00:40:22;;;;;;;2.03;0.40;;;;;;;9.86;100.00;92473.66;2103918;28;20027;-80
2023/11/14 00:41:23;;;;;;;0.38;0.30;;;;;;;9.82;100.00;92467.66;2096708;28;20020;-81
2023/11/14 00:42:24;;;;;;;0.20;0.20;;;;;;;9.77;100.00;92462.84;2096975;28;20048;-78
2023/11/14 00:43:25;;;;;;;0.28;0.20;;;;;;;9.87;100.00;92459.13;2102448;28;20024;-78
2023/11/14 00:44:26;;;;;;;1.05;0.30;;;;;;;9.88;100.00;92449.94;2103000;28;20032;-78
2023/11/14 00:45:28;;;;;;;1.38;0.30;;;;;;;9.86;100.00;92451.53;2088488;28;20028;-79
2023/11/14 00:46:29;;;;;;;6.07;1.20;;;;;;;10.00;100.00;92453.78;2102129;27;20027;-80
2023/11/14 00:47:31;;;;;;;1.45;0.30;;;;;;;10.09;100.00;92451.94;2115067;28;20031;-80
2023/11/14 00:48:32;;;;;;;1.23;0.35;;;;;;;10.05;100.00;92463.91;2114737;27;20403;-80
2023/11/14 00:49:33;;;;;;;1.13;0.30;;;;;;;9.89;100.00;92462.13;2121414;27;20034;-80
2023/11/14 00:50:34;;;;;;;2.53;0.50;;;;;;;9.81;100.00;92476.84;2116867;27;20031;-82
2023/11/14 00:51:35;;;;;;;0.43;0.38;;;;;;;9.80;100.00;92465.44;2116997;27;20019;-81
2023/11/14 00:52:36;;;;;;;1.25;0.32;;;;;;;9.81;100.00;92484.84;2117592;27;20539;-82
2023/11/14 00:53:36;;;;;;;0.93;0.30;;;;;;;9.78;100.00;92483.03;2106878;28;20031;-81
2023/11/14 00:54:37;;;;;;;1.92;0.40;;;;;;;9.89;100.00;92478.13;2096358;28;20032;-77
2023/11/14 00:55:38;;;;;;;0.90;0.30;;;;;;;9.83;100.00;92479.81;2100715;28;20020;-80
2023/11/14 00:56:39;;;;;;;2.63;0.52;;;;;;;9.75;100.00;92489.97;2117033;27;20019;-82
2023/11/14 00:57:41;;;;;;;1.15;0.40;;;;;;;9.77;100.00;92476.19;2118294;27;20026;-79
2023/11/14 00:58:42;;;;;;;0.47;0.20;;;;;;;9.72;100.00;92468.72;2120644;27;20023;-81
2023/11/14 00:59:43;;;;;;;0.60;0.30;;;;;;;9.74;100.00;92464.44;2119102;27;20019;-78
2023/11/14 01:00:44;;;;;;;0.40;0.30;;;;;;;9.82;100.00;92471.06;2102793;28;20485;-80
2023/11/14 01:01:45;;;;;;;1.98;0.30;;;;;;;9.86;100.00;92472.91;2102652;28;20027;-77
2023/11/14 01:02:46;;;;;;;1.02;0.40;;;;;;;9.74;100.00;92487.72;2107555;28;20023;-77
2023/11/14 01:03:47;;;;;;;3.05;0.35;;;;;;;9.75;100.00;92478.56;2105306;28;20017;-80
2023/11/14 01:04:48;;;;;;;0.85;0.30;;;;;;;9.77;100.00;92486.88;2093056;28;20020;-77
2023/11/14 01:05:50;;;;;;;0.98;0.30;;;;;;;9.80;100.00;92470.75;2104392;28;20078;-78
2023/11/14 01:06:51;;;;;;;1.88;0.45;;;;;;;9.82;100.00;92473.00;2120396;27;20023;-77
2023/11/14 01:07:52;;;;;;;2.15;0.50;;;;;;;9.64;100.00;92489.53;2103369;28;20027;-79
2023/11/14 01:08:53;;;;;;;0.90;0.25;;;;;;;9.76;100.00;92472.03;2095351;28;20493;-78
2023/11/14 01:09:54;;;;;;;0.63;0.30;;;;;;;9.71;100.00;92470.66;2101480;28;20819;-79
2023/11/14 01:10:55;;;;;;;1.02;0.32;;;;;;;9.69;100.00;92486.31;2108199;28;20117;-81
2023/11/14 01:11:56;;;;;;;0.60;0.30;;;;;;;9.63;100.00;92476.63;2113343;28;20330;-78
2023/11/14 01:13:00;;;;;;;1.27;0.30;;;;;;;9.62;100.00;92483.88;2111077;28;20042;-81
2023/11/14 01:14:01;;;;;;;1.10;0.30;;;;;;;9.57;100.00;92479.06;2118961;27;20426;-80
2023/11/14 01:15:04;;;;;;;1.08;0.30;;;;;;;9.57;100.00;92482.47;2107869;28;20016;-79
2023/11/14 01:16:05;;;;;;;0.40;0.30;;;;;;;9.50;100.00;92488.00;2097613;28;20016;-79
2023/11/14 01:17:06;;;;;;;1.88;0.22;;;;;;;9.60;100.00;92499.53;2102563;28;20024;-79
2023/11/14 01:18:08;;;;;;;2.38;0.30;;;;;;;9.64;100.00;92486.84;2109114;28;20020;-79
2023/11/14 01:19:08;;;;;;;0.73;0.40;;;;;;;9.56;100.00;92502.31;2117875;27;20023;-78
2023/11/14 01:20:11;;;;;;;1.80;0.60;;;;;;;9.47;100.00;92496.84;2118838;27;20023;-80
2023/11/14 01:21:18;;;;;;;1.08;0.40;;;;;;;9.59;100.00;92496.13;2117435;27;20027;-78
2023/11/14 01:22:19;;;;;;;1.55;0.30;;;;;;;9.63;100.00;92513.97;2114009;28;20093;-78
2023/11/14 01:23:20;;;;;;;0.32;0.22;;;;;;;9.65;100.00;92506.28;2114562;28;20027;-81
2023/11/14 01:24:21;;;;;;;0.68;0.28;;;;;;;9.70;100.00;92505.75;2107779;28;20031;-81
2023/11/14 01:25:23;;;;;;;0.50;0.30;;;;;;;9.68;100.00;92489.44;2104517;28;20492;-78
2023/11/14 01:26:24;;;;;;;1.23;0.20;;;;;;;9.69;100.00;92489.00;2108697;28;20166;-78
2023/11/14 01:27:25;;;;;;;0.95;0.30;;;;;;;9.74;100.00;92493.78;2105760;28;20070;-78
2023/11/14 01:28:27;;;;;;;0.25;0.25;;;;;;;9.69;100.00;92483.66;2109758;28;20016;-79
2023/11/14 01:29:28;;;;;;;2.42;0.40;;;;;;;9.68;100.00;92476.09;2103098;28;20028;-76
2023/11/14 01:30:29;;;;;;;1.60;0.40;;;;;;;9.65;100.00;92472.34;2097366;28;20099;-78
2023/11/14 01:31:30;;;;;;;1.13;0.40;;;;;;;9.66;100.00;92479.19;2106524;28;20492;-77
2023/11/14 01:32:31;;;;;;;1.10;0.73;;;;;;;9.75;100.00;92473.97;2112819;28;20024;-79
2023/11/14 01:33:32;;;;;;;0.75;0.30;;;;;;;9.65;100.00;92488.34;2117524;27;20023;-81
2023/11/14 01:34:35;;;;;;;0.20;0.20;;;;;;;9.55;100.00;92482.13;2107923;28;20035;-79
2023/11/14 01:35:35;;;;;;;0.75;0.30;;;;;;;9.59;100.00;92477.47;2117467;27;20051;-78
2023/11/14 01:36:38;;;;;;;1.38;0.20;;;;;;;9.58;100.00;92483.22;2122011;27;20049;-81
2023/11/14 01:37:38;;;;;;;0.80;0.32;;;;;;;9.68;100.00;92479.50;2120472;27;20094;-81
2023/11/14 01:38:40;;;;;;;0.35;0.30;;;;;;;9.61;100.00;92482.34;2129341;27;20446;-79
2023/11/14 01:41:50;;;;;;;0.63;0.20;;;;;;;9.46;100.00;92487.34;2134674;27;20014;-77
2023/11/14 01:43:25;;;;;;;0.22;0.20;;;;;;;9.51;100.00;92492.16;2126608;27;20019;-79
2023/11/14 01:45:04;;;;;;;0.30;0.20;;;;;;;9.43;100.00;92501.53;2124388;27;20051;-81
2023/11/14 01:46:05;;;;;;;0.52;0.28;;;;;;;9.55;100.00;92492.81;2132262;27;20101;-77
2023/11/14 01:47:06;;;;;;;0.68;0.20;;;;;;;9.42;100.00;92494.72;2124355;27;20044;-78
2023/11/14 01:48:10;;;;;;;0.63;0.20;;;;;;;9.67;100.00;92490.59;2119286;27;20118;-78
2023/11/14 01:49:14;;;;;;;0.28;0.13;;;;;;;9.50;100.00;92495.25;2131256;27;20023;-78
2023/11/14 01:50:16;;;;;;;0.20;0.20;;;;;;;9.64;100.00;92512.78;2128626;27;20010;-81
2023/11/14 01:51:23;;;;;;;0.93;0.25;;;;;;;9.68;100.00;92506.19;2128095;27;20026;-79
2023/11/14 01:54:23;;;;;;;0.43;0.20;;;;;;;9.59;100.00;92490.78;2136761;27;20011;-78
2023/11/14 01:57:21;;;;;;;0.30;0.20;;;;;;;9.77;100.00;92492.97;2136737;27;20015;-79
2023/11/14 01:58:28;;;;;;;0.10;0.10;;;;;;;9.68;100.00;92502.78;2137297;27;20027;-76
2023/11/14 01:59:30;;;;;;;0.98;0.20;;;;;;;9.69;100.00;92506.94;2138001;27;20030;-78
2023/11/14 02:00:31;;;;;;;0.20;0.20;;;;;;;9.58;100.00;92507.25;2124865;27;20101;-79
2023/11/14 02:01:34;;;;;;;0.22;0.20;;;;;;;9.67;100.00;92504.69;2125143;27;20023;-80
2023/11/14 02:03:12;;;;;;;0.47;0.20;;;;;;;9.64;100.00;92507.47;2127091;27;20046;-82
2023/11/14 02:06:10;;;;;;;0.68;0.35;;;;;;;9.54;100.00;92530.59;2136065;27;20034;-77
2023/11/14 02:08:04;;;;;;;0.60;0.30;;;;;;;9.69;100.00;92533.63;2136299;27;20018;-78
2023/11/14 02:09:07;;;;;;;1.67;0.20;;;;;;;9.62;100.00;92518.56;2126290;27;20399;-79
2023/11/14 02:10:08;;;;;;;0.80;0.45;;;;;;;9.59;100.00;92520.16;2121685;27;20022;-78
2023/11/14 02:11:09;;;;;;;0.57;0.22;;;;;;;9.39;100.00;92508.88;2122362;27;20463;-79
2023/11/14 02:12:20;;;;;;;0.20;0.20;;;;;;;9.47;100.00;92512.09;2127420;27;20098;-77
2023/11/14 02:13:21;;;;;;;1.15;0.30;;;;;;;9.53;100.00;92507.75;2137817;27;20025;-78
2023/11/14 02:14:22;;;;;;;0.40;0.40;;;;;;;9.63;100.00;92511.31;2118026;27;20118;-78
2023/11/14 02:15:23;;;;;;;0.20;0.20;;;;;;;9.57;100.00;92495.06;2112586;28;20046;-78
2023/11/14 02:16:24;;;;;;;0.50;0.20;;;;;;;9.46;100.00;92499.94;2120254;27;20030;-78
2023/11/14 02:17:25;;;;;;;0.30;0.20;;;;;;;9.46;100.00;92491.94;2125787;27;20022;-76
2023/11/14 02:18:26;;;;;;;0.20;0.20;;;;;;;9.41;100.00;92490.53;2125665;27;20026;-80
2023/11/14 02:19:27;;;;;;;0.55;0.17;;;;;;;9.45;100.00;92479.78;2124660;27;20089;-78
2023/11/14 02:20:28;;;;;;;0.52;0.20;;;;;;;9.58;100.00;92477.88;2126218;27;20053;-78
2023/11/14 02:21:29;;;;;;;1.35;0.20;;;;;;;9.46;100.00;92478.59;2124929;27;20507;-80
2023/11/14 02:24:14;;;;;;;;;;;;;;;8.73;100.00;92497.63;2142563;27;20118;-78
2023/11/14 02:25:16;;;;;;;0.22;0.22;;;;;;;8.68;100.00;92502.72;2117517;27;19947;-81
2023/11/14 02:26:17;;;;;;;0.65;0.28;;;;;;;8.69;100.00;92485.56;2123388;27;20023;-80
2023/11/14 02:27:22;;;;;;;0.30;0.30;;;;;;;8.73;100.00;92486.97;2120815;27;20549;-79
2023/11/14 02:28:23;;;;;;;0.20;0.13;;;;;;;8.83;100.00;92498.56;2124897;27;20085;-80
2023/11/14 02:29:24;;;;;;;0.95;0.20;;;;;;;8.74;100.00;92495.75;2134577;27;20014;-78
2023/11/14 02:30:25;;;;;;;0.20;0.20;;;;;;;8.81;100.00;92498.22;2124127;27;20027;-80
2023/11/14 02:31:29;;;;;;;0.43;0.20;;;;;;;8.85;100.00;92504.19;2111985;28;20027;-79
2023/11/14 02:32:30;;;;;;;0.30;0.30;;;;;;;8.80;100.00;92494.06;2123496;27;20024;-79
2023/11/14 02:33:33;;;;;;;0.22;0.20;;;;;;;8.73;100.00;92502.94;2120808;27;20023;-82
2023/11/14 02:34:35;;;;;;;0.17;0.10;;;;;;;8.89;100.00;92499.53;2112899;28;20031;-80
2023/11/14 02:35:36;;;;;;;0.30;0.20;;;;;;;9.05;100.00;92498.75;2115124;28;20023;-82
2023/11/14 02:36:39;;;;;;;0.73;0.30;;;;;;;8.87;100.00;92491.22;2120432;27;20028;-78
2023/11/14 02:37:40;;;;;;;0.55;0.30;;;;;;;8.80;100.00;92480.72;2123367;27;20492;-78
2023/11/14 02:38:41;;;;;;;1.10;0.30;;;;;;;8.80;100.00;92481.47;2112290;28;20061;-81
2023/11/14 02:39:42;;;;;;;0.38;0.30;;;;;;;8.83;100.00;92487.88;2112368;28;20099;-77
2023/11/14 02:40:47;;;;;;;0.38;0.22;;;;;;;8.82;100.00;92500.47;2122586;27;20015;-78
2023/11/14 02:41:48;;;;;;;0.90;0.38;;;;;;;8.95;100.00;92503.16;2111861;27;20570;-79
2023/11/14 02:42:53;;;;;;;0.30;0.30;;;;;;;8.85;100.00;92508.78;2116931;27;20028;-78
2023/11/14 02:43:57;;;;;;;1.00;0.30;;;;;;;8.93;100.00;92507.44;2127824;27;20113;-81
2023/11/14 02:44:58;;;;;;;0.32;0.20;;;;;;;8.89;100.00;92504.13;2123501;27;20023;-76
2023/11/14 02:45:59;;;;;;;0.80;0.20;;;;;;;8.78;100.00;92502.47;2121910;27;20511;-80
2023/11/14 02:47:00;;;;;;;0.80;0.43;;;;;;;8.74;100.00;92493.81;2124531;27;20027;-80
2023/11/14 02:48:01;;;;;;;0.75;0.30;;;;;;;8.80;100.00;92486.06;2114384;27;20392;-79
2023/11/14 02:49:11;;;;;;;1.67;0.40;;;;;;;8.88;100.00;92489.28;2114866;28;20051;-80
2023/11/14 02:50:36;;;;;;;1.10;0.30;;;;;;;8.95;100.00;92478.44;2115159;27;20051;-76
2023/11/14 02:51:40;;;;;;;0.30;0.30;;;;;;;8.90;100.00;92487.69;2119788;27;20030;-81
2023/11/14 02:52:41;;;;;;;0.93;0.40;;;;;;;8.89;100.00;92483.53;2132255;27;20029;-81
2023/11/14 02:53:43;;;;;;;1.48;0.30;;;;;;;8.83;100.00;92480.66;2122846;27;20478;-78
2023/11/14 02:54:44;;;;;;;0.22;0.20;;;;;;;8.79;100.00;92492.56;2123625;27;20022;-79
2023/11/14 02:55:54;;;;;;;0.30;0.30;;;;;;;8.65;100.00;92477.69;2128779;27;21649;-81
2023/11/14 02:56:55;;;;;;;0.85;0.38;;;;;;;8.88;100.00;92491.97;2129093;27;20371;-76
2023/11/14 02:57:56;;;;;;;0.70;0.30;;;;;;;8.77;100.00;92473.56;2111823;28;20023;-77
2023/11/14 02:59:16;;;;;;;0.40;0.30;;;;;;;8.62;100.00;92475.09;2105684;27;20043;-77
2023/11/14 03:00:17;;;;;;;;;;;;;;;8.61;100.00;92482.34;2115819;28;20020;-81
2023/11/14 03:01:18;;;;;;;0.30;0.30;;;;;;;8.55;100.00;92484.00;2109795;28;20268;-76
2023/11/14 03:02:19;;;;;;;0.40;0.28;;;;;;;8.62;100.00;92507.06;2121590;27;20058;-77
2023/11/14 03:03:20;;;;;;;0.52;0.30;;;;;;;8.59;100.00;92535.28;2111177;28;20020;-78
2023/11/14 03:04:21;;;;;;;1.40;0.52;;;;;;;8.69;100.00;92533.53;2097369;28;20416;-80
2023/11/14 03:05:22;;;;;;;0.50;0.30;;;;;;;8.60;100.00;92541.34;2102690;28;20036;-80
2023/11/14 03:06:23;;;;;;;0.73;0.40;;;;;;;8.65;100.00;92538.94;2119390;28;20023;-77
2023/11/14 03:07:24;;;;;;;0.30;0.30;;;;;;;8.54;100.00;92536.53;2132240;27;20057;-79
2023/11/14 03:08:41;;;;;;;0.52;0.30;;;;;;;8.46;100.00;92534.44;2123127;27;20459;-78
2023/11/14 03:11:40;;;;;;;1.15;0.40;;;;;;;8.68;100.00;92545.34;2118850;27;20417;-79
2023/11/14 03:12:41;;;;;;;3.13;0.30;;;;;;;8.60;100.00;92549.34;2125340;27;20011;-78
2023/11/14 03:13:41;;;;;;;1.40;0.55;;;;;;;8.40;100.00;92534.19;2121540;27;20016;-78
2023/11/14 03:14:42;;;;;;;2.15;0.50;;;;;;;8.37;100.00;92540.34;2112290;28;20019;-82
2023/11/14 03:15:43;;;;;;;3.00;0.40;;;;;;;8.42;100.00;92544.44;2114620;28;20020;-80
2023/11/14 03:16:45;;;;;;;0.60;0.30;;;;;;;8.26;100.00;92548.56;2122617;27;20019;-78
2023/11/14 03:17:46;;;;;;;0.85;0.40;;;;;;;8.44;100.00;92531.47;2133987;27;20030;-77
2023/11/14 03:18:47;;;;;;;0.47;0.40;;;;;;;8.44;100.00;92526.88;2129931;27;20037;-81
2023/11/14 03:19:54;;;;;;;0.40;0.40;;;;;;;8.53;100.00;92523.63;2118928;28;20017;-78
2023/11/14 03:20:55;;;;;;;0.85;0.45;;;;;;;8.41;100.00;92519.72;2112293;28;20020;-80
2023/11/14 03:21:56;;;;;;;1.63;0.30;;;;;;;8.45;100.00;92531.03;2111900;27;20495;-79
2023/11/14 03:22:57;;;;;;;2.38;0.50;;;;;;;8.44;100.00;92528.78;2123742;27;20551;-79
2023/11/14 03:23:58;;;;;;;0.65;0.40;;;;;;;8.48;100.00;92532.88;2119960;28;20104;-77
2023/11/14 03:24:59;;;;;;;1.40;0.50;;;;;;;8.35;100.00;92533.94;2120944;27;20024;-79
2023/11/14 03:26:00;;;;;;;0.30;0.30;;;;;;;8.31;100.00;92539.31;2129899;27;20098;-79
2023/11/14 03:27:01;;;;;;;0.98;0.40;;;;;;;8.47;100.00;92546.59;2129492;27;20046;-80
2023/11/14 03:28:04;;;;;;;1.30;0.47;;;;;;;8.50;100.00;92559.84;2127726;27;20046;-77
2023/11/14 03:29:06;;;;;;;1.70;0.50;;;;;;;8.41;100.00;92548.25;2129893;27;20019;-79
2023/11/14 03:30:07;;;;;;;0.40;0.32;;;;;;;8.52;100.00;92540.78;2134071;27;20026;-80
2023/11/14 03:31:08;;;;;;;1.40;0.45;;;;;;;8.49;100.00;92549.59;2114653;28;20023;-79
2023/11/14 03:32:09;;;;;;;2.70;0.60;;;;;;;8.28;100.00;92546.22;2111507;28;20031;-77
2023/11/14 03:33:10;;;;;;;0.40;0.38;;;;;;;8.34;100.00;92554.47;2129979;27;20025;-76
2023/11/14 03:34:11;;;;;;;1.25;0.40;;;;;;;8.27;100.00;92534.06;2120852;27;20085;-78
2023/11/14 03:35:12;;;;;;;1.73;0.50;;;;;;;8.21;100.00;92537.63;2116937;28;20024;-79
2023/11/14 03:36:13;;;;;;;0.98;0.40;;;;;;;8.28;100.00;92524.91;2116659;27;20096;-79
2023/11/14 03:37:14;;;;;;;1.23;0.32;;;;;;;8.13;100.00;92520.34;2116716;27;20016;-78
2023/11/14 03:38:16;;;;;;;2.45;0.65;;;;;;;8.09;100.00;92509.78;2114954;28;20041;-79
2023/11/14 03:39:17;;;;;;;1.08;0.43;;;;;;;8.00;100.00;92526.31;2116852;27;20015;-78
2023/11/14 03:40:19;;;;;;;1.95;0.50;;;;;;;7.87;100.00;92530.78;2119802;27;20568;-76
2023/11/14 03:41:20;;;;;;;1.88;1.10;;;;;;;7.87;100.00;92536.09;2114770;27;20098;-79
2023/11/14 03:42:21;;;;;;;2.50;0.50;;;;;;;7.88;100.00;92544.81;2106504;28;20028;-80
2023/11/14 03:43:22;;;;;;;1.02;0.30;;;;;;;7.86;100.00;92547.91;2114744;28;20115;-78
2023/11/14 03:44:23;;;;;;;3.58;0.68;;;;;;;7.92;100.00;92554.22;2124082;27;20371;-78
2023/11/14 03:45:24;;;;;;;0.40;0.30;;;;;;;7.78;100.00;92565.91;2114979;28;20559;-77
2023/11/14 03:46:27;;;;;;;2.92;0.55;;;;;;;7.83;100.00;92556.69;2116777;27;20023;-80
2023/11/14 03:47:28;;;;;;;3.30;0.90;;;;;;;7.91;100.00;92566.03;2119227;27;20585;-81
2023/11/14 03:48:29;;;;;;;2.78;0.55;;;;;;;7.87;100.00;92575.25;2118813;27;20019;-77
2023/11/14 03:49:30;;;;;;;2.10;0.50;;;;;;;7.83;100.00;92581.41;2124468;27;20106;-80
2023/11/14 03:50:32;;;;;;;0.55;0.50;;;;;;;7.94;100.00;92567.84;2121865;27;20490;-79
2023/11/14 03:51:34;;;;;;;1.83;0.65;;;;;;;7.79;100.00;92559.44;2112860;28;20020;-80
2023/11/14 03:52:36;;;;;;;1.27;0.38;;;;;;;7.97;100.00;92556.41;2115109;27;20098;-80
2023/11/14 03:53:37;;;;;;;1.25;0.47;;;;;;;7.92;100.00;92562.22;2124846;27;20019;-78
2023/11/14 03:54:38;;;;;;;1.50;0.43;;;;;;;8.02;100.00;92571.13;2107254;28;20111;-77
2023/11/14 03:55:39;;;;;;;1.98;0.68;;;;;;;7.98;100.00;92583.75;2108667;27;20024;-79
2023/11/14 03:56:40;;;;;;;2.22;0.63;;;;;;;8.05;100.00;92581.72;2111861;27;20027;-79
2023/11/14 03:57:41;;;;;;;1.60;0.70;;;;;;;8.22;100.00;92566.53;2114824;28;20024;-80
2023/11/14 03:58:42;;;;;;;1.27;0.50;;;;;;;8.10;100.00;92567.16;2127265;27;20050;-79
2023/11/14 03:59:44;;;;;;;0.68;0.50;;;;;;;8.00;100.00;92568.88;2126045;27;20030;-78
2023/11/14 04:00:46;;;;;;;0.73;0.52;;;;;;;7.84;100.00;92563.50;2116893;27;20684;-81
2023/11/14 04:01:47;;;;;;;3.03;0.40;;;;;;;8.00;100.00;92568.88;2114228;28;20103;-82
2023/11/14 04:02:48;;;;;;;1.15;0.50;;;;;;;8.13;100.00;92576.25;2126798;27;20068;-80
2023/11/14 04:03:49;;;;;;;1.48;0.50;;;;;;;8.07;100.00;92567.97;2124788;27;20203;-79
2023/11/14 04:04:50;;;;;;;0.47;0.40;;;;;;;8.12;100.00;92570.16;2124869;27;20030;-78
2023/11/14 04:05:51;;;;;;;2.50;0.50;;;;;;;8.02;100.00;92561.22;2124691;27;20035;-77
2023/11/14 04:06:55;;;;;;;2.55;0.40;;;;;;;8.17;100.00;92567.03;2129025;27;20122;-79
2023/11/14 04:07:56;;;;;;;1.83;0.50;;;;;;;8.28;100.00;92572.09;2122172;27;20068;-81
2023/11/14 04:08:57;;;;;;;0.63;0.50;;;;;;;8.32;100.00;92576.19;2125896;27;20022;-79
2023/11/14 04:09:58;;;;;;;0.90;0.50;;;;;;;8.14;100.00;92578.47;2124965;27;20015;-80
2023/11/14 04:10:59;;;;;;;1.40;0.50;;;;;;;8.41;100.00;92572.22;2125643;27;20025;-77
2023/11/14 04:12:00;;;;;;;0.80;0.50;;;;;;;8.35;100.00;92560.56;2116478;27;20457;-79
2023/11/14 04:13:01;;;;;;;0.70;0.40;;;;;;;8.26;100.00;92555.81;2106017;28;20028;-79
2023/11/14 04:14:04;;;;;;;0.65;0.38;;;;;;;8.13;100.00;92573.59;2106249;28;20377;-78
2023/11/14 04:15:06;;;;;;;1.30;0.50;;;;;;;8.10;100.00;92571.75;2106474;28;20063;-81
2023/11/14 04:16:07;;;;;;;4.07;0.65;;;;;;;8.16;100.00;92578.06;2105958;28;20061;-79
2023/11/14 04:17:08;;;;;;;0.70;0.43;;;;;;;8.23;100.00;92581.31;2107619;28;20015;-81
2023/11/14 04:18:09;;;;;;;2.35;0.60;;;;;;;8.18;100.00;92573.84;2101362;28;20051;-82
2023/11/14 04:19:10;;;;;;;0.82;0.40;;;;;;;8.20;100.00;92570.75;2100224;28;20040;-80
2023/11/14 04:20:11;;;;;;;1.58;0.45;;;;;;;8.24;100.00;92574.09;2110454;28;20475;-79
2023/11/14 04:21:19;;;;;;;1.33;0.40;;;;;;;8.24;100.00;92576.75;2105390;28;20573;-78
2023/11/14 04:22:20;;;;;;;0.73;0.55;;;;;;;8.23;100.00;92573.34;2113015;27;20465;-81
2023/11/14 04:23:21;;;;;;;1.08;0.50;;;;;;;8.23;100.00;92578.66;2116164;27;20027;-80
2023/11/14 04:24:23;;;;;;;2.13;0.40;;;;;;;8.35;100.00;92577.28;2110036;28;20047;-78
2023/11/14 04:25:24;;;;;;;1.67;0.40;;;;;;;8.30;100.00;92581.19;2106380;28;20103;-79
2023/11/14 04:26:25;;;;;;;0.93;0.40;;;;;;;8.35;100.00;92587.19;2115407;27;20015;-79
2023/11/14 04:27:26;;;;;;;1.20;0.55;;;;;;;8.34;100.00;92583.78;2114362;27;20410;-80
2023/11/14 04:28:27;;;;;;;0.40;0.35;;;;;;;8.22;100.00;92579.84;2115513;27;20027;-79
2023/11/14 04:29:28;;;;;;;0.90;0.57;;;;;;;8.15;100.00;92577.31;2115219;28;20027;-81
2023/11/14 04:30:29;;;;;;;4.55;0.55;;;;;;;8.14;100.00;92567.84;2114389;27;20385;-81
2023/11/14 04:31:30;;;;;;;1.67;0.47;;;;;;;8.08;100.00;92572.91;2110533;27;20077;-78
2023/11/14 04:32:31;;;;;;;1.65;0.50;;;;;;;8.05;100.00;92572.97;2114152;27;20380;-78
2023/11/14 04:33:32;;;;;;;2.72;0.52;;;;;;;8.39;100.00;92571.91;2115029;28;20019;-78
2023/11/14 04:34:34;;;;;;;0.32;0.30;;;;;;;8.33;100.00;92561.69;2116914;27;20063;-81
2023/11/14 04:35:35;;;;;;;1.90;0.55;;;;;;;8.45;100.00;92573.66;2113257;27;20022;-82
2023/11/14 04:36:36;;;;;;;0.90;0.50;;;;;;;8.37;100.00;92580.28;2114499;28;20077;-80
2023/11/14 04:37:37;;;;;;;2.70;0.60;;;;;;;8.24;100.00;92576.75;2116588;27;20449;-78
2023/11/14 04:38:38;;;;;;;1.42;0.50;;;;;;;8.32;100.00;92578.09;2115372;27;20115;-81
2023/11/14 04:39:39;;;;;;;0.98;0.35;;;;;;;8.35;100.00;92577.28;2113239;28;20027;-81
2023/11/14 04:40:40;;;;;;;0.40;0.30;;;;;;;8.29;100.00;92582.31;2117131;27;20473;-81
2023/11/14 04:41:42;;;;;;;0.80;0.38;;;;;;;8.33;100.00;92585.66;2117070;27;20024;-80
2023/11/14 04:42:45;;;;;;;0.77;0.40;;;;;;;8.29;100.00;92589.56;2114564;28;20020;-80
2023/11/14 04:43:46;;;;;;;0.75;0.45;;;;;;;8.31;100.00;92592.59;2106139;28;20016;-81
2023/11/14 04:44:53;;;;;;;0.80;0.40;;;;;;;8.48;100.00;92583.47;2114473;28;20341;-79
2023/11/14 04:45:54;;;;;;;2.25;0.63;;;;;;;8.63;100.00;92591.13;2112829;27;20549;-81
2023/11/14 04:46:55;;;;;;;1.33;0.40;;;;;;;8.47;100.00;92595.31;2098326;28;20082;-81
2023/11/14 04:47:57;;;;;;;1.02;0.30;;;;;;;8.61;100.00;92598.81;2107984;28;20099;-81
2023/11/14 04:48:58;;;;;;;1.40;0.40;;;;;;;8.69;100.00;92598.25;2106059;28;20016;-80
2023/11/14 04:49:59;;;;;;;0.95;0.47;;;;;;;8.71;100.00;92600.47;2113655;28;20046;-79
2023/11/14 04:51:00;;;;;;;3.42;0.52;;;;;;;8.55;100.00;92596.63;2112147;28;20042;-79
2023/11/14 04:52:02;;;;;;;3.30;0.47;;;;;;;8.28;100.00;92594.16;2105926;28;20024;-79
2023/11/14 04:53:03;;;;;;;1.38;0.30;;;;;;;8.23;100.00;92599.97;2114010;28;20018;-80
2023/11/14 04:54:04;;;;;;;1.67;0.40;;;;;;;8.17;100.00;92604.28;2114157;28;20027;-80
2023/11/14 04:55:05;;;;;;;1.27;0.40;;;;;;;8.17;100.00;92598.22;2114279;27;20024;-78
2023/11/14 04:56:06;;;;;;;2.30;0.50;;;;;;;8.13;100.00;92584.22;2114981;28;20034;-78
2023/11/14 04:57:07;;;;;;;1.08;0.35;;;;;;;8.15;100.00;92587.22;2114392;28;20503;-79
2023/11/14 04:58:08;;;;;;;0.25;0.25;;;;;;;8.15;100.00;92590.63;2113557;28;20024;-80
2023/11/14 04:59:09;;;;;;;1.70;0.30;;;;;;;8.10;100.00;92595.69;2114944;28;20107;-81
2023/11/14 05:00:11;;;;;;;0.52;0.40;;;;;;;8.08;100.00;92593.44;2116280;27;20064;-82
2023/11/14 05:01:14;;;;;;;0.47;0.47;;;;;;;8.16;100.00;92596.69;2107034;28;20076;-80
2023/11/14 05:02:16;;;;;;;1.95;0.40;;;;;;;8.12;100.00;92593.34;2111162;28;20626;-80
2023/11/14 05:03:17;;;;;;;2.22;0.75;;;;;;;7.95;100.00;92596.00;2114378;27;20030;-80
2023/11/14 05:04:18;;;;;;;0.45;0.45;;;;;;;7.98;100.00;92603.13;2103727;28;20024;-80